sensor_id;sensor_type;location;lat;lon;timestamp;pressure;altitude;pressure_sealevel;temperature;humidity
70968;BME280;58629;48.808;8.820;2022-11-15T00:00:31;96915.84;;;7.50;96.28
70968;BME280;58629;48.808;8.820;2022-11-15T00:02:56;96915.50;;;7.48;95.87
70968;BME280;58629;48.808;8.820;2022-11-15T00:05:21;96917.03;;;7.42;96.19
70968;BME280;58629;48.808;8.820;2022-11-15T00:07:47;96907.94;;;7.47;96.21
70968;BME280;58629;48.808;8.820;2022-11-15T00:10:12;96909.84;;;7.46;96.61
70968;BME280;58629;48.808;8.820;2022-11-15T00:12:38;96915.50;;;7.45;96.25
70968;BME280;58629;48.808;8.820;2022-11-15T00:15:03;96915.91;;;7.43;96.00
70968;BME280;58629;48.808;8.820;2022-11-15T00:17:29;96912.50;;;7.43;96.19
70968;BME280;58629;48.808;8.820;2022-11-15T00:19:55;96915.94;;;7.40;96.17
70968;BME280;58629;48.808;8.820;2022-11-15T00:22:20;96911.81;;;7.39;96.20
70968;BME280;58629;48.808;8.820;2022-11-15T00:24:45;96909.94;;;7.36;95.94
70968;BME280;58629;48.808;8.820;2022-11-15T00:27:11;96912.22;;;7.34;96.04
70968;BME280;58629;48.808;8.820;2022-11-15T00:29:36;96902.78;;;7.36;95.93
70968;BME280;58629;48.808;8.820;2022-11-15T00:32:04;96894.47;;;7.41;95.27
70968;BME280;58629;48.808;8.820;2022-11-15T00:34:29;96904.22;;;7.44;95.15
70968;BME280;58629;48.808;8.820;2022-11-15T00:36:54;96902.69;;;7.47;95.19
70968;BME280;58629;48.808;8.820;2022-11-15T00:39:19;96894.28;;;7.59;94.88
70968;BME280;58629;48.808;8.820;2022-11-15T00:41:45;96903.69;;;7.60;94.56
70968;BME280;58629;48.808;8.820;2022-11-15T00:44:10;96900.66;;;7.61;93.76
70968;BME280;58629;48.808;8.820;2022-11-15T00:46:35;96895.81;;;7.60;94.41
70968;BME280;58629;48.808;8.820;2022-11-15T00:49:00;96896.56;;;7.57;94.35
70968;BME280;58629;48.808;8.820;2022-11-15T00:51:26;96893.97;;;7.53;94.37
70968;BME280;58629;48.808;8.820;2022-11-15T00:53:51;96881.25;;;7.48;94.29
70968;BME280;58629;48.808;8.820;2022-11-15T00:56:16;96887.66;;;7.44;94.28
70968;BME280;58629;48.808;8.820;2022-11-15T00:58:41;96888.09;;;7.39;94.15
70968;BME280;58629;48.808;8.820;2022-11-15T01:01:12;96888.56;;;7.30;94.78
70968;BME280;58629;48.808;8.820;2022-11-15T01:03:39;96883.38;;;7.20;95.18
70968;BME280;58629;48.808;8.820;2022-11-15T01:06:06;96886.81;;;7.13;95.03
70968;BME280;58629;48.808;8.820;2022-11-15T01:08:32;96878.22;;;7.06;95.93
70968;BME280;58629;48.808;8.820;2022-11-15T01:11:05;96879.00;;;7.03;95.97
70968;BME280;58629;48.808;8.820;2022-11-15T01:13:32;96873.78;;;6.99;96.09
70968;BME280;58629;48.808;8.820;2022-11-15T01:15:59;96877.91;;;6.96;96.32
70968;BME280;58629;48.808;8.820;2022-11-15T01:18:24;96874.94;;;6.94;96.54
70968;BME280;58629;48.808;8.820;2022-11-15T01:20:49;96879.09;;;6.88;96.52
70968;BME280;58629;48.808;8.820;2022-11-15T01:23:15;96861.47;;;6.82;97.51
70968;BME280;58629;48.808;8.820;2022-11-15T01:25:40;96865.97;;;6.81;97.07
70968;BME280;58629;48.808;8.820;2022-11-15T01:28:05;96861.91;;;6.77;97.08
70968;BME280;58629;48.808;8.820;2022-11-15T01:30:31;96858.53;;;6.73;97.13
70968;BME280;58629;48.808;8.820;2022-11-15T01:32:56;96862.31;;;6.72;97.49
70968;BME280;58629;48.808;8.820;2022-11-15T01:35:21;96855.94;;;6.69;97.72
70968;BME280;58629;48.808;8.820;2022-11-15T01:37:46;96858.56;;;6.69;97.73
70968;BME280;58629;48.808;8.820;2022-11-15T01:40:12;96852.19;;;6.67;97.98
70968;BME280;58629;48.808;8.820;2022-11-15T01:42:37;96854.06;;;6.66;97.69
70968;BME280;58629;48.808;8.820;2022-11-15T01:45:03;96845.44;;;6.66;98.37
70968;BME280;58629;48.808;8.820;2022-11-15T01:47:35;96850.31;;;6.67;98.19
70968;BME280;58629;48.808;8.820;2022-11-15T01:50:06;96845.41;;;6.69;98.55
70968;BME280;58629;48.808;8.820;2022-11-15T01:52:34;96846.16;;;6.70;98.95
70968;BME280;58629;48.808;8.820;2022-11-15T01:55:09;96844.69;;;6.65;98.88
70968;BME280;58629;48.808;8.820;2022-11-15T01:57:37;96839.81;;;6.67;98.78
70968;BME280;58629;48.808;8.820;2022-11-15T02:00:04;96840.53;;;6.71;98.19
70968;BME280;58629;48.808;8.820;2022-11-15T02:02:31;96835.63;;;6.70;98.13
70968;BME280;58629;48.808;8.820;2022-11-15T02:04:57;96834.91;;;6.69;98.49
70968;BME280;58629;48.808;8.820;2022-11-15T02:07:22;96845.78;;;6.68;98.52
70968;BME280;58629;48.808;8.820;2022-11-15T02:09:49;96839.41;;;6.69;98.37
70968;BME280;58629;48.808;8.820;2022-11-15T02:12:19;96837.88;;;6.71;98.56
70968;BME280;58629;48.808;8.820;2022-11-15T02:14:48;96829.22;;;6.74;98.92
70968;BME280;58629;48.808;8.820;2022-11-15T02:22:36;96820.16;;;6.79;98.85
70968;BME280;58629;48.808;8.820;2022-11-15T02:31:05;96812.97;;;6.83;99.23
70968;BME280;58629;48.808;8.820;2022-11-15T02:33:46;96809.59;;;6.82;98.50
70968;BME280;58629;48.808;8.820;2022-11-15T02:36:21;96813.72;;;6.83;98.85
70968;BME280;58629;48.808;8.820;2022-11-15T02:39:18;96806.22;;;6.82;98.56
70968;BME280;58629;48.808;8.820;2022-11-15T02:41:51;96804.28;;;6.86;98.80
70968;BME280;58629;48.808;8.820;2022-11-15T02:44:24;96798.72;;;6.80;98.23
70968;BME280;58629;48.808;8.820;2022-11-15T02:46:57;96803.94;;;6.84;98.55
70968;BME280;58629;48.808;8.820;2022-11-15T02:49:46;96799.44;;;6.84;98.50
70968;BME280;58629;48.808;8.820;2022-11-15T02:52:16;96796.75;;;6.88;98.74
70968;BME280;58629;48.808;8.820;2022-11-15T02:54:42;96790.34;;;6.92;98.10
70968;BME280;58629;48.808;8.820;2022-11-15T02:57:13;96786.19;;;6.95;98.42
70968;BME280;58629;48.808;8.820;2022-11-15T03:02:56;96780.47;;;7.00;98.48
70968;BME280;58629;48.808;8.820;2022-11-15T03:08:22;96782.00;;;7.01;97.47
70968;BME280;58629;48.808;8.820;2022-11-15T03:11:09;96781.63;;;6.99;98.35
70968;BME280;58629;48.808;8.820;2022-11-15T03:16:26;96775.66;;;6.95;97.79
70968;BME280;58629;48.808;8.820;2022-11-15T03:19:30;96773.75;;;6.99;97.53
70968;BME280;58629;48.808;8.820;2022-11-15T03:21:59;96772.22;;;6.98;98.25
70968;BME280;58629;48.808;8.820;2022-11-15T03:24:28;96768.47;;;6.99;97.83
70968;BME280;58629;48.808;8.820;2022-11-15T03:26:56;96768.84;;;7.01;98.29
70968;BME280;58629;48.808;8.820;2022-11-15T03:29:27;96769.56;;;7.01;98.19
70968;BME280;58629;48.808;8.820;2022-11-15T03:31:58;96765.03;;;7.02;98.54
70968;BME280;58629;48.808;8.820;2022-11-15T03:34:28;96762.00;;;7.03;98.07
70968;BME280;58629;48.808;8.820;2022-11-15T03:36:56;96763.91;;;7.03;98.09
70968;BME280;58629;48.808;8.820;2022-11-15T03:39:22;96760.94;;;7.01;98.80
70968;BME280;58629;48.808;8.820;2022-11-15T03:41:56;96755.69;;;6.97;98.50
70968;BME280;58629;48.808;8.820;2022-11-15T03:44:40;96749.28;;;6.98;99.10
70968;BME280;58629;48.808;8.820;2022-11-15T03:47:21;96753.09;;;6.94;98.83
70968;BME280;58629;48.808;8.820;2022-11-15T03:49:55;96747.47;;;6.92;99.14
70968;BME280;58629;48.808;8.820;2022-11-15T03:52:23;96748.63;;;6.91;99.14
70968;BME280;58629;48.808;8.820;2022-11-15T03:54:55;96752.50;;;6.76;99.00
70968;BME280;58629;48.808;8.820;2022-11-15T03:57:21;96750.66;;;6.73;98.92
70968;BME280;58629;48.808;8.820;2022-11-15T03:59:46;96752.97;;;6.64;99.13
70968;BME280;58629;48.808;8.820;2022-11-15T04:02:12;96747.00;;;6.63;99.54
70968;BME280;58629;48.808;8.820;2022-11-15T04:04:37;96757.91;;;6.58;99.25
70968;BME280;58629;48.808;8.820;2022-11-15T04:07:02;96754.88;;;6.60;99.98
70968;BME280;58629;48.808;8.820;2022-11-15T04:09:27;96753.78;;;6.61;100.00
70968;BME280;58629;48.808;8.820;2022-11-15T04:11:53;96750.00;;;6.62;100.00
70968;BME280;58629;48.808;8.820;2022-11-15T04:14:18;96747.34;;;6.65;100.00
70968;BME280;58629;48.808;8.820;2022-11-15T04:16:43;96739.41;;;6.69;100.00
70968;BME280;58629;48.808;8.820;2022-11-15T04:19:08;96738.63;;;6.72;99.60
70968;BME280;58629;48.808;8.820;2022-11-15T04:21:52;96743.53;;;6.73;100.00
70968;BME280;58629;48.808;8.820;2022-11-15T04:24:36;96733.00;;;6.70;99.74
70968;BME280;58629;48.808;8.820;2022-11-15T04:27:01;96738.66;;;6.68;99.68
70968;BME280;58629;48.808;8.820;2022-11-15T04:29:27;96733.09;;;6.63;99.75
70968;BME280;58629;48.808;8.820;2022-11-15T04:32:05;96734.91;;;6.66;100.00
70968;BME280;58629;48.808;8.820;2022-11-15T04:34:31;96732.63;;;6.71;99.53
70968;BME280;58629;48.808;8.820;2022-11-15T04:36:56;96727.69;;;6.77;98.66
70968;BME280;58629;48.808;8.820;2022-11-15T04:39:37;96726.50;;;6.81;98.34
70968;BME280;58629;48.808;8.820;2022-11-15T04:42:02;96716.69;;;6.85;98.19
70968;BME280;58629;48.808;8.820;2022-11-15T04:44:27;96715.56;;;6.86;98.02
70968;BME280;58629;48.808;8.820;2022-11-15T04:46:53;96729.53;;;6.80;97.46
70968;BME280;58629;48.808;8.820;2022-11-15T04:49:18;96728.41;;;6.77;98.31
70968;BME280;58629;48.808;8.820;2022-11-15T04:51:44;96720.22;;;6.72;99.08
70968;BME280;58629;48.808;8.820;2022-11-15T04:54:09;96715.34;;;6.70;99.13
70968;BME280;58629;48.808;8.820;2022-11-15T04:56:34;96722.13;;;6.71;99.03
70968;BME280;58629;48.808;8.820;2022-11-15T04:59:00;96717.56;;;6.72;99.27
70968;BME280;58629;48.808;8.820;2022-11-15T05:01:25;96715.31;;;6.74;99.00
70968;BME280;58629;48.808;8.820;2022-11-15T05:03:50;96710.03;;;6.74;99.51
70968;BME280;58629;48.808;8.820;2022-11-15T05:06:34;96708.56;;;6.73;99.57
70968;BME280;58629;48.808;8.820;2022-11-15T05:08:59;96709.31;;;6.73;99.56
70968;BME280;58629;48.808;8.820;2022-11-15T05:11:25;96707.75;;;6.76;98.69
70968;BME280;58629;48.808;8.820;2022-11-15T05:13:52;96707.00;;;6.79;99.04
70968;BME280;58629;48.808;8.820;2022-11-15T05:16:17;96696.44;;;6.82;99.04
70968;BME280;58629;48.808;8.820;2022-11-15T05:18:42;96694.16;;;6.84;98.98
70968;BME280;58629;48.808;8.820;2022-11-15T05:21:10;96692.63;;;6.87;99.01
70968;BME280;58629;48.808;8.820;2022-11-15T05:23:36;96691.09;;;6.89;98.33
70968;BME280;58629;48.808;8.820;2022-11-15T05:26:03;96688.44;;;6.89;98.15
70968;BME280;58629;48.808;8.820;2022-11-15T05:28:29;96688.03;;;6.94;98.62
70968;BME280;58629;48.808;8.820;2022-11-15T05:31:19;96682.38;;;6.96;99.23
70968;BME280;58629;48.808;8.820;2022-11-15T05:33:45;96669.97;;;6.96;98.76
70968;BME280;58629;48.808;8.820;2022-11-15T05:36:36;96670.69;;;7.00;99.01
70968;BME280;58629;48.808;8.820;2022-11-15T05:39:06;96662.38;;;7.02;97.95
70968;BME280;58629;48.808;8.820;2022-11-15T05:41:49;96669.50;;;7.05;97.78
70968;BME280;58629;48.808;8.820;2022-11-15T05:44:18;96672.50;;;7.03;98.81
70968;BME280;58629;48.808;8.820;2022-11-15T05:46:45;96669.06;;;7.40;100.00
70968;BME280;58629;48.808;8.820;2022-11-15T05:49:13;96667.84;;;7.75;100.00
70968;BME280;58629;48.808;8.820;2022-11-15T05:51:41;96662.44;;;8.09;100.00
70968;BME280;58629;48.808;8.820;2022-11-15T05:54:08;96664.59;;;8.40;100.00
70968;BME280;58629;48.808;8.820;2022-11-15T05:56:34;96668.22;;;8.69;99.46
70968;BME280;58629;48.808;8.820;2022-11-15T05:59:00;96668.06;;;9.00;97.49
70968;BME280;58629;48.808;8.820;2022-11-15T06:01:26;96668.28;;;9.28;95.70
70968;BME280;58629;48.808;8.820;2022-11-15T06:03:52;96675.00;;;9.49;93.98
70968;BME280;58629;48.808;8.820;2022-11-15T06:06:17;96682.63;;;9.63;92.40
70968;BME280;58629;48.808;8.820;2022-11-15T06:08:42;96683.09;;;9.78;91.88
70968;BME280;58629;48.808;8.820;2022-11-15T06:11:08;96679.47;;;9.88;90.49
70968;BME280;58629;48.808;8.820;2022-11-15T06:13:33;96685.09;;;9.90;88.12
70968;BME280;58629;48.808;8.820;2022-11-15T06:15:59;96676.41;;;9.89;87.86
70968;BME280;58629;48.808;8.820;2022-11-15T06:18:25;96680.81;;;9.96;88.17
70968;BME280;58629;48.808;8.820;2022-11-15T06:20:50;96672.78;;;9.99;88.26
70968;BME280;58629;48.808;8.820;2022-11-15T06:23:16;96676.19;;;10.00;86.73
70968;BME280;58629;48.808;8.820;2022-11-15T06:25:42;96683.13;;;9.94;87.33
70968;BME280;58629;48.808;8.820;2022-11-15T06:28:07;96682.75;;;9.76;84.04
70968;BME280;58629;48.808;8.820;2022-11-15T06:30:33;96678.94;;;8.82;85.38
70968;BME280;58629;48.808;8.820;2022-11-15T06:33:03;96689.03;;;8.67;91.29
70968;BME280;58629;48.808;8.820;2022-11-15T06:35:29;96688.75;;;8.82;92.11
70968;BME280;58629;48.808;8.820;2022-11-15T06:37:55;96681.00;;;8.94;91.86
70968;BME280;58629;48.808;8.820;2022-11-15T06:40:20;96684.13;;;9.09;91.91
70968;BME280;58629;48.808;8.820;2022-11-15T06:42:45;96685.34;;;9.24;91.27
70968;BME280;58629;48.808;8.820;2022-11-15T06:45:11;96683.56;;;9.37;90.95
70968;BME280;58629;48.808;8.820;2022-11-15T06:47:44;96684.94;;;9.06;85.44
70968;BME280;58629;48.808;8.820;2022-11-15T06:50:10;96696.84;;;9.33;89.49
70968;BME280;58629;48.808;8.820;2022-11-15T06:52:35;96699.13;;;9.51;89.82
70968;BME280;58629;48.808;8.820;2022-11-15T06:55:01;96701.91;;;9.63;89.16
70968;BME280;58629;48.808;8.820;2022-11-15T06:57:26;96698.53;;;9.43;84.05
70968;BME280;58629;48.808;8.820;2022-11-15T06:59:51;96705.84;;;8.77;85.35
70968;BME280;58629;48.808;8.820;2022-11-15T07:02:16;96698.97;;;8.37;87.36
70968;BME280;58629;48.808;8.820;2022-11-15T07:04:42;96692.56;;;8.11;89.39
70968;BME280;58629;48.808;8.820;2022-11-15T07:07:07;96702.34;;;8.11;90.56
70968;BME280;58629;48.808;8.820;2022-11-15T07:09:32;96700.56;;;8.04;91.23
70968;BME280;58629;48.808;8.820;2022-11-15T07:11:57;96705.84;;;8.04;92.49
70968;BME280;58629;48.808;8.820;2022-11-15T07:14:23;96699.97;;;7.93;93.06
70968;BME280;58629;48.808;8.820;2022-11-15T07:16:48;96692.19;;;7.86;92.93
70968;BME280;58629;48.808;8.820;2022-11-15T07:19:13;96703.78;;;7.88;94.13
70968;BME280;58629;48.808;8.820;2022-11-15T07:21:38;96699.97;;;7.93;94.76
70968;BME280;58629;48.808;8.820;2022-11-15T07:24:04;96692.53;;;7.88;94.02
70968;BME280;58629;48.808;8.820;2022-11-15T07:26:29;96694.41;;;7.87;95.59
70968;BME280;58629;48.808;8.820;2022-11-15T07:28:54;96697.03;;;7.87;95.28
70968;BME280;58629;48.808;8.820;2022-11-15T07:31:20;96700.44;;;7.88;95.19
70968;BME280;58629;48.808;8.820;2022-11-15T07:33:45;96698.16;;;7.90;95.90
70968;BME280;58629;48.808;8.820;2022-11-15T07:36:10;96693.91;;;7.96;95.13
70968;BME280;58629;48.808;8.820;2022-11-15T07:38:36;96694.97;;;8.02;94.73
70968;BME280;58629;48.808;8.820;2022-11-15T07:41:03;96689.28;;;8.04;93.52
70968;BME280;58629;48.808;8.820;2022-11-15T07:43:29;96679.44;;;8.08;93.18
70968;BME280;58629;48.808;8.820;2022-11-15T07:45:55;96682.00;;;8.11;93.50
70968;BME280;58629;48.808;8.820;2022-11-15T07:48:20;96685.69;;;8.17;93.66
70968;BME280;58629;48.808;8.820;2022-11-15T07:50:46;96683.72;;;8.21;93.49
70968;BME280;58629;48.808;8.820;2022-11-15T07:53:11;96683.31;;;8.23;93.17
70968;BME280;58629;48.808;8.820;2022-11-15T07:55:39;96684.78;;;8.27;93.45
70968;BME280;58629;48.808;8.820;2022-11-15T07:58:07;96683.25;;;8.30;93.61
70968;BME280;58629;48.808;8.820;2022-11-15T08:00:33;96685.00;;;8.36;93.69
70968;BME280;58629;48.808;8.820;2022-11-15T08:03:06;96689.44;;;8.43;93.62
70968;BME280;58629;48.808;8.820;2022-11-15T08:05:32;96693.56;;;8.44;92.91
70968;BME280;58629;48.808;8.820;2022-11-15T08:07:57;96685.06;;;8.56;92.65
70968;BME280;58629;48.808;8.820;2022-11-15T08:10:23;96684.13;;;8.66;92.55
70968;BME280;58629;48.808;8.820;2022-11-15T08:12:56;96678.28;;;8.78;92.71
70968;BME280;58629;48.808;8.820;2022-11-15T08:15:22;96677.34;;;8.88;91.11
70968;BME280;58629;48.808;8.820;2022-11-15T08:17:47;96677.50;;;9.01;91.30
70968;BME280;58629;48.808;8.820;2022-11-15T08:20:12;96678.09;;;9.08;90.77
70968;BME280;58629;48.808;8.820;2022-11-15T08:22:38;96669.28;;;9.15;91.04
70968;BME280;58629;48.808;8.820;2022-11-15T08:25:03;96673.34;;;9.19;90.19
70968;BME280;58629;48.808;8.820;2022-11-15T08:27:29;96677.00;;;9.25;90.61
70968;BME280;58629;48.808;8.820;2022-11-15T08:29:54;96678.41;;;9.30;90.31
70968;BME280;58629;48.808;8.820;2022-11-15T08:32:19;96664.34;;;9.36;90.26
70968;BME280;58629;48.808;8.820;2022-11-15T08:34:45;96669.13;;;9.41;90.42
70968;BME280;58629;48.808;8.820;2022-11-15T08:37:10;96660.31;;;9.48;90.14
70968;BME280;58629;48.808;8.820;2022-11-15T08:39:35;96656.03;;;9.54;89.67
70968;BME280;58629;48.808;8.820;2022-11-15T08:42:00;96654.41;;;9.60;88.69
70968;BME280;58629;48.808;8.820;2022-11-15T08:44:26;96652.34;;;9.68;88.85
70968;BME280;58629;48.808;8.820;2022-11-15T08:46:51;96657.88;;;9.73;88.06
70968;BME280;58629;48.808;8.820;2022-11-15T08:49:16;96648.28;;;9.79;87.67
70968;BME280;58629;48.808;8.820;2022-11-15T08:51:42;96640.94;;;9.87;88.13
70968;BME280;58629;48.808;8.820;2022-11-15T08:54:07;96638.56;;;9.92;88.66
70968;BME280;58629;48.808;8.820;2022-11-15T08:56:32;96644.53;;;9.96;86.95
70968;BME280;58629;48.808;8.820;2022-11-15T08:58:58;96643.94;;;10.05;88.09
70968;BME280;58629;48.808;8.820;2022-11-15T09:01:23;96657.03;;;10.12;87.18
70968;BME280;58629;48.808;8.820;2022-11-15T09:03:48;96654.22;;;10.19;87.49
70968;BME280;58629;48.808;8.820;2022-11-15T09:06:14;96644.94;;;10.27;86.12
70968;BME280;58629;48.808;8.820;2022-11-15T09:08:40;96640.63;;;10.33;85.87
70968;BME280;58629;48.808;8.820;2022-11-15T09:11:07;96645.03;;;10.39;85.76
70968;BME280;58629;48.808;8.820;2022-11-15T09:13:32;96645.59;;;10.47;85.60
70968;BME280;58629;48.808;8.820;2022-11-15T09:15:59;96639.38;;;10.54;84.58
70968;BME280;58629;48.808;8.820;2022-11-15T09:18:25;96636.13;;;10.62;85.30
70968;BME280;58629;48.808;8.820;2022-11-15T09:20:50;96637.97;;;10.78;85.22
70968;BME280;58629;48.808;8.820;2022-11-15T09:23:16;96634.63;;;10.90;84.11
70968;BME280;58629;48.808;8.820;2022-11-15T09:25:41;96635.41;;;11.03;84.47
70968;BME280;58629;48.808;8.820;2022-11-15T09:28:07;96629.09;;;11.13;83.93
70968;BME280;58629;48.808;8.820;2022-11-15T09:30:33;96625.47;;;11.19;83.46
70968;BME280;58629;48.808;8.820;2022-11-15T09:32:58;96619.88;;;11.30;83.59
70968;BME280;58629;48.808;8.820;2022-11-15T09:35:24;96624.13;;;11.40;83.63
70968;BME280;58629;48.808;8.820;2022-11-15T09:37:49;96620.53;;;11.47;83.28
70968;BME280;58629;48.808;8.820;2022-11-15T09:40:16;96620.75;;;11.52;83.42
70968;BME280;58629;48.808;8.820;2022-11-15T09:43:07;96620.63;;;11.56;82.06
70968;BME280;58629;48.808;8.820;2022-11-15T09:50:53;96609.19;;;11.59;82.90
70968;BME280;58629;48.808;8.820;2022-11-15T09:53:35;96618.84;;;11.65;84.56
70968;BME280;58629;48.808;8.820;2022-11-15T09:56:14;96612.28;;;11.70;85.68
70968;BME280;58629;48.808;8.820;2022-11-15T09:58:54;96613.25;;;11.76;84.89
70968;BME280;58629;48.808;8.820;2022-11-15T10:01:39;96612.28;;;11.82;84.46
70968;BME280;58629;48.808;8.820;2022-11-15T10:04:06;96604.97;;;11.86;83.59
70968;BME280;58629;48.808;8.820;2022-11-15T10:06:34;96603.34;;;11.89;81.70
70968;BME280;58629;48.808;8.820;2022-11-15T10:09:13;96602.09;;;11.93;82.16
70968;BME280;58629;48.808;8.820;2022-11-15T10:11:41;96599.31;;;11.97;81.57
70968;BME280;58629;48.808;8.820;2022-11-15T10:19:23;96591.66;;;11.99;81.44
70968;BME280;58629;48.808;8.820;2022-11-15T10:24:28;96595.38;;;12.01;82.52
70968;BME280;58629;48.808;8.820;2022-11-15T10:26:56;96590.19;;;11.98;81.23
70968;BME280;58629;48.808;8.820;2022-11-15T10:29:23;96588.88;;;12.02;80.73
70968;BME280;58629;48.808;8.820;2022-11-15T10:31:49;96582.19;;;12.10;80.22
70968;BME280;58629;48.808;8.820;2022-11-15T10:34:17;96576.03;;;12.13;79.17
70968;BME280;58629;48.808;8.820;2022-11-15T10:36:55;96571.78;;;12.16;79.56
70968;BME280;58629;48.808;8.820;2022-11-15T10:39:21;96558.72;;;12.22;79.18
70968;BME280;58629;48.808;8.820;2022-11-15T10:41:46;96567.81;;;12.20;79.09
70968;BME280;58629;48.808;8.820;2022-11-15T10:44:30;96557.97;;;12.21;79.95
70968;BME280;58629;48.808;8.820;2022-11-15T10:49:25;96563.69;;;12.19;79.22
70968;BME280;58629;48.808;8.820;2022-11-15T10:54:42;96558.72;;;12.22;79.98
70968;BME280;58629;48.808;8.820;2022-11-15T10:57:16;96552.97;;;12.23;79.95
70968;BME280;58629;48.808;8.820;2022-11-15T10:59:46;96555.00;;;12.19;79.19
70968;BME280;58629;48.808;8.820;2022-11-15T11:02:39;96556.91;;;12.18;79.48
70968;BME280;58629;48.808;8.820;2022-11-15T11:08:02;96544.50;;;12.15;79.29
70968;BME280;58629;48.808;8.820;2022-11-15T11:10:28;96542.59;;;12.16;79.82
70968;BME280;58629;48.808;8.820;2022-11-15T11:12:54;96538.88;;;12.13;79.37
70968;BME280;58629;48.808;8.820;2022-11-15T11:15:20;96534.00;;;12.12;79.58
70968;BME280;58629;48.808;8.820;2022-11-15T11:18:12;96535.03;;;12.14;79.47
70968;BME280;58629;48.808;8.820;2022-11-15T11:20:50;96518.72;;;12.16;79.77
70968;BME280;58629;48.808;8.820;2022-11-15T11:23:38;96517.41;;;12.20;79.70
70968;BME280;58629;48.808;8.820;2022-11-15T11:28:57;96507.88;;;12.32;79.52
70968;BME280;58629;48.808;8.820;2022-11-15T11:50:27;96483.16;;;12.35;79.35
70968;BME280;58629;48.808;8.820;2022-11-15T11:53:09;96482.25;;;12.38;79.17
70968;BME280;58629;48.808;8.820;2022-11-15T11:55:45;96470.94;;;12.38;79.37
70968;BME280;58629;48.808;8.820;2022-11-15T11:58:14;96469.00;;;12.38;79.32
70968;BME280;58629;48.808;8.820;2022-11-15T12:00:46;96475.19;;;12.35;79.69
70968;BME280;58629;48.808;8.820;2022-11-15T12:05:54;96460.41;;;12.34;80.25
70968;BME280;58629;48.808;8.820;2022-11-15T12:08:33;96463.81;;;12.35;80.52
70968;BME280;58629;48.808;8.820;2022-11-15T12:11:12;96457.03;;;12.34;80.84
70968;BME280;58629;48.808;8.820;2022-11-15T12:13:40;96452.13;;;12.32;81.01
70968;BME280;58629;48.808;8.820;2022-11-15T12:16:27;96449.47;;;12.32;81.10
70968;BME280;58629;48.808;8.820;2022-11-15T12:18:56;96449.47;;;12.32;81.39
70968;BME280;58629;48.808;8.820;2022-11-15T12:24:12;96445.22;;;12.35;81.53
70968;BME280;58629;48.808;8.820;2022-11-15T12:26:52;96438.00;;;12.35;81.33
70968;BME280;58629;48.808;8.820;2022-11-15T12:29:41;96444.78;;;12.36;81.66
70968;BME280;58629;48.808;8.820;2022-11-15T12:32:27;96437.13;;;12.38;81.67
70968;BME280;58629;48.808;8.820;2022-11-15T12:34:55;96432.88;;;12.41;82.01
70968;BME280;58629;48.808;8.820;2022-11-15T12:37:52;96433.50;;;12.45;81.24
70968;BME280;58629;48.808;8.820;2022-11-15T12:45:42;96434.44;;;12.60;80.69
70968;BME280;58629;48.808;8.820;2022-11-15T12:58:55;96414.41;;;12.68;80.22
70968;BME280;58629;48.808;8.820;2022-11-15T13:06:46;96393.66;;;12.75;81.52
70968;BME280;58629;48.808;8.820;2022-11-15T13:12:10;96389.09;;;12.85;81.25
70968;BME280;58629;48.808;8.820;2022-11-15T13:14:45;96381.75;;;12.89;80.12
70968;BME280;58629;48.808;8.820;2022-11-15T13:17:25;96375.84;;;12.94;79.94
70968;BME280;58629;48.808;8.820;2022-11-15T13:19:56;96373.47;;;12.96;79.88
70968;BME280;58629;48.808;8.820;2022-11-15T13:22:24;96366.84;;;13.00;80.09
70968;BME280;58629;48.808;8.820;2022-11-15T13:25:26;96358.44;;;13.02;79.31
70968;BME280;58629;48.808;8.820;2022-11-15T13:27:52;96359.19;;;13.02;79.05
70968;BME280;58629;48.808;8.820;2022-11-15T13:30:30;96363.34;;;13.03;79.13
70968;BME280;58629;48.808;8.820;2022-11-15T13:32:58;96362.59;;;13.03;78.68
70968;BME280;58629;48.808;8.820;2022-11-15T13:35:28;96352.06;;;12.99;79.13
70968;BME280;58629;48.808;8.820;2022-11-15T13:37:56;96350.31;;;12.96;79.20
70968;BME280;58629;48.808;8.820;2022-11-15T13:40:28;96342.47;;;12.93;79.25
70968;BME280;58629;48.808;8.820;2022-11-15T13:42:56;96343.94;;;12.94;80.11
70968;BME280;58629;48.808;8.820;2022-11-15T13:45:22;96348.38;;;12.88;80.53
70968;BME280;58629;48.808;8.820;2022-11-15T13:47:55;96347.03;;;12.83;80.78
70968;BME280;58629;48.808;8.820;2022-11-15T13:50:24;96338.31;;;12.83;81.08
70968;BME280;58629;48.808;8.820;2022-11-15T13:52:51;96332.84;;;12.77;80.75
70968;BME280;58629;48.808;8.820;2022-11-15T13:55:22;96333.41;;;12.72;80.82
70968;BME280;58629;48.808;8.820;2022-11-15T13:57:53;96321.19;;;12.75;81.08
70968;BME280;58629;48.808;8.820;2022-11-15T14:00:34;96324.28;;;12.73;81.13
70968;BME280;58629;48.808;8.820;2022-11-15T14:03:15;96325.00;;;12.65;81.23
70968;BME280;58629;48.808;8.820;2022-11-15T14:05:41;96321.72;;;12.61;81.71
70968;BME280;58629;48.808;8.820;2022-11-15T14:08:23;96321.56;;;12.55;81.61
70968;BME280;58629;48.808;8.820;2022-11-15T14:11:06;96317.69;;;12.47;81.89
70968;BME280;58629;48.808;8.820;2022-11-15T14:13:31;96317.41;;;12.45;81.58
70968;BME280;58629;48.808;8.820;2022-11-15T14:16:18;96314.88;;;12.42;81.64
70968;BME280;58629;48.808;8.820;2022-11-15T14:18:50;96313.84;;;12.39;81.85
70968;BME280;58629;48.808;8.820;2022-11-15T14:21:17;96309.06;;;12.34;82.25
70968;BME280;58629;48.808;8.820;2022-11-15T14:23:43;96305.09;;;12.30;82.76
70968;BME280;58629;48.808;8.820;2022-11-15T14:26:27;96291.63;;;12.24;83.03
70968;BME280;58629;48.808;8.820;2022-11-15T14:28:53;96292.97;;;12.19;82.85
70968;BME280;58629;48.808;8.820;2022-11-15T14:31:19;96290.75;;;12.18;83.30
70968;BME280;58629;48.808;8.820;2022-11-15T14:33:45;96280.69;;;12.13;83.30
70968;BME280;58629;48.808;8.820;2022-11-15T14:36:13;96279.84;;;12.16;83.05
70968;BME280;58629;48.808;8.820;2022-11-15T14:38:39;96272.41;;;12.11;82.81
70968;BME280;58629;48.808;8.820;2022-11-15T14:41:05;96273.31;;;12.08;83.76
70968;BME280;58629;48.808;8.820;2022-11-15T14:43:35;96271.22;;;12.03;84.21
70968;BME280;58629;48.808;8.820;2022-11-15T14:46:00;96271.66;;;12.01;84.24
70968;BME280;58629;48.808;8.820;2022-11-15T14:48:25;96262.34;;;11.97;84.62
70968;BME280;58629;48.808;8.820;2022-11-15T14:50:51;96259.81;;;11.93;84.53